Terminal Aerodrome Forecast
Issued by NWS

Home | Current Version | Previous Version | Graphics & Text | Print | Product List | Glossary On
Versions: 1 2 3 4 5 6 7 8 9 10 11 12 13 14 15 16
444
FTUS42 KMHX 261720
TAFPGV
TAF
KPGV 261720Z 2618/2718 07006KT P6SM SCT035
     FM270700 00000KT 5SM BR SKC
     FM270900 00000KT 4SM BR FEW008
     FM271200 VRB03KT P6SM SCT040
     FM271700 22006KT P6SM SCT050
      AMD LTD TO CLD VIS AND WIND=

USA.gov is the U.S. government's official web portal to all federal, state and local government web resources and services.